Time,TemperatureF,DewpointF,PressureIn,WindDirection,WindDirectionDegrees,WindSpeedMPH,WindSpeedGustMPH,Humidity,HourlyPrecipIn,Conditions,Clouds,dailyrainin,SoftwareType,DateUTC
2013-01-31 00:04:00,44.6,44.1,30.22,ENE,67,0.0,-999.0,98,-99.99,,,0.00,Acu-Link.com,2013-01-31 08:04:00,
2013-01-31 00:20:00,44.6,44.1,30.22,NE,45,0.0,-999.0,98,-99.99,,,0.00,Acu-Link.com,2013-01-31 08:20:00,
2013-01-31 00:35:00,45.5,45.0,30.22,NE,45,0.0,-999.0,98,-99.99,,,0.00,Acu-Link.com,2013-01-31 08:35:00,
2013-01-31 00:50:00,45.9,45.1,30.22,WNW,292,0.0,-999.0,97,-99.99,,,0.00,Acu-Link.com,2013-01-31 08:50:00,
2013-01-31 01:15:00,45.1,44.6,30.21,NNW,337,0.0,-999.0,98,-99.99,,,0.00,Acu-Link.com,2013-01-31 09:15:00,
2013-01-31 01:30:00,45.0,44.5,30.21,NNW,337,0.0,-999.0,98,-99.99,,,0.00,Acu-Link.com,2013-01-31 09:30:00,
2013-01-31 01:45:00,44.2,43.7,30.21,NNW,337,0.0,-999.0,98,-99.99,,,0.00,Acu-Link.com,2013-01-31 09:45:00,
2013-01-31 02:00:00,43.7,43.2,30.21,WNW,292,0.0,-999.0,98,-99.99,,,0.00,Acu-Link.com,2013-01-31 10:00:00,
2013-01-31 02:16:00,42.8,42.3,30.21,ESE,112,0.0,-999.0,98,-99.99,,,0.00,Acu-Link.com,2013-01-31 10:16:00,
2013-01-31 02:31:00,42.4,41.9,30.20,East,90,0.0,-999.0,98,-99.99,,,0.00,Acu-Link.com,2013-01-31 10:31:00,
2013-01-31 02:46:00,42.3,41.5,30.20,East,90,0.0,-999.0,97,-99.99,,,0.00,Acu-Link.com,2013-01-31 10:46:00,
2013-01-31 03:01:00,42.1,41.0,30.20,East,90,0.0,-999.0,96,-99.99,,,0.00,Acu-Link.com,2013-01-31 11:01:00,
2013-01-31 03:16:00,42.8,41.2,30.20,East,90,0.0,-999.0,94,-99.99,,,0.00,Acu-Link.com,2013-01-31 11:16:00,
2013-01-31 03:32:00,42.6,41.3,30.19,East,90,0.0,-999.0,95,-99.99,,,0.00,Acu-Link.com,2013-01-31 11:32:00,
2013-01-31 03:47:00,42.6,41.0,30.20,NE,45,2.7,-999.0,94,-99.99,,,0.00,Acu-Link.com,2013-01-31 11:47:00,
2013-01-31 04:02:00,43.2,41.6,30.20,NE,45,0.0,-999.0,94,-99.99,,,0.00,Acu-Link.com,2013-01-31 12:02:00,
2013-01-31 04:18:00,43.5,41.9,30.20,East,90,0.0,-999.0,94,-99.99,,,0.00,Acu-Link.com,2013-01-31 12:18:00,
2013-01-31 04:33:00,43.5,41.3,30.19,East,90,0.0,-999.0,92,-99.99,,,0.00,Acu-Link.com,2013-01-31 12:33:00,
2013-01-31 04:48:00,42.6,41.3,30.20,NNE,22,0.0,-999.0,95,-99.99,,,0.00,Acu-Link.com,2013-01-31 12:48:00,
2013-01-31 05:03:00,42.6,41.5,30.20,ESE,112,1.7,-999.0,96,-99.99,,,0.00,Acu-Link.com,2013-01-31 13:03:00,
2013-01-31 05:18:00,43.0,42.2,30.20,SE,135,0.0,-999.0,97,-99.99,,,0.00,Acu-Link.com,2013-01-31 13:18:00,
2013-01-31 05:34:00,43.2,42.4,30.20,SE,135,1.7,-999.0,97,-99.99,,,0.00,Acu-Link.com,2013-01-31 13:34:00,
2013-01-31 05:49:00,43.2,42.7,30.20,East,90,1.7,-999.0,98,-99.99,,,0.00,Acu-Link.com,2013-01-31 13:49:00,
2013-01-31 06:04:00,43.2,42.7,30.20,ESE,112,2.7,-999.0,98,-99.99,,,0.00,Acu-Link.com,2013-01-31 14:04:00,
2013-01-31 06:19:00,43.5,43.0,30.20,SE,135,0.0,-999.0,98,-99.99,,,0.00,Acu-Link.com,2013-01-31 14:19:00,
2013-01-31 06:34:00,43.3,42.8,30.20,ESE,112,0.0,-999.0,98,-99.99,,,0.00,Acu-Link.com,2013-01-31 14:34:00,
2013-01-31 06:50:00,42.6,42.1,30.21,ENE,67,0.0,-999.0,98,-99.99,,,0.00,Acu-Link.com,2013-01-31 14:50:00,
2013-01-31 07:05:00,42.1,41.6,30.21,East,90,0.0,-999.0,98,-99.99,,,0.00,Acu-Link.com,2013-01-31 15:05:00,
2013-01-31 07:20:00,42.3,41.8,30.22,NNE,22,0.0,-999.0,98,-99.99,,,0.00,Acu-Link.com,2013-01-31 15:20:00,
2013-01-31 07:35:00,42.6,42.1,30.22,NNE,22,1.7,-999.0,98,-99.99,,,0.00,Acu-Link.com,2013-01-31 15:35:00,
2013-01-31 07:50:00,44.2,43.1,30.22,North,0,1.1,-999.0,96,-99.99,,,0.00,Acu-Link.com,2013-01-31 15:50:00,
2013-01-31 08:06:00,47.5,45.0,30.22,North,0,1.1,-999.0,91,-99.99,,,0.00,Acu-Link.com,2013-01-31 16:06:00,
2013-01-31 08:21:00,48.4,45.3,30.23,NE,45,2.7,-999.0,89,-99.99,,,0.00,Acu-Link.com,2013-01-31 16:21:00,
2013-01-31 08:36:00,49.6,46.5,30.23,NNW,337,2.7,-999.0,89,-99.99,,,0.00,Acu-Link.com,2013-01-31 16:36:00,
2013-01-31 08:51:00,51.4,47.7,30.23,East,90,1.7,-999.0,87,-99.99,,,0.00,Acu-Link.com,2013-01-31 16:51:00,
2013-01-31 09:07:00,52.9,48.8,30.23,East,90,1.1,-999.0,86,-99.99,,,0.00,Acu-Link.com,2013-01-31 17:07:00,
2013-01-31 09:22:00,54.7,50.6,30.23,NNW,337,1.7,-999.0,86,-99.99,,,0.00,Acu-Link.com,2013-01-31 17:22:00,
2013-01-31 09:37:00,56.5,52.0,30.23,NE,45,1.1,-999.0,85,-99.99,,,0.00,Acu-Link.com,2013-01-31 17:37:00,
2013-01-31 09:52:00,56.7,52.6,30.23,NE,45,0.0,-999.0,86,-99.99,,,0.00,Acu-Link.com,2013-01-31 17:52:00,
2013-01-31 10:07:00,57.6,52.8,30.23,West,270,1.7,-999.0,84,-99.99,,,0.00,Acu-Link.com,2013-01-31 18:07:00,
2013-01-31 10:23:00,58.8,54.6,30.23,SSW,202,0.0,-999.0,86,-99.99,,,0.00,Acu-Link.com,2013-01-31 18:23:00,
2013-01-31 10:38:00,60.6,56.7,30.23,East,90,1.1,-999.0,87,-99.99,,,0.00,Acu-Link.com,2013-01-31 18:38:00,
2013-01-31 10:53:00,62.2,58.9,30.22,NW,315,2.7,-999.0,89,-99.99,,,0.00,Acu-Link.com,2013-01-31 18:53:00,
2013-01-31 11:08:00,61.3,58.6,30.22,NW,315,0.0,-999.0,91,-99.99,,,0.00,Acu-Link.com,2013-01-31 19:08:00,
2013-01-31 11:23:00,61.9,61.0,30.21,West,270,2.2,-999.0,97,-99.99,,,0.00,Acu-Link.com,2013-01-31 19:23:00,
2013-01-31 11:39:00,60.8,58.2,30.20,NW,315,3.2,-999.0,91,-99.99,,,0.00,Acu-Link.com,2013-01-31 19:39:00,
2013-01-31 11:54:00,61.0,58.0,30.19,NNW,337,2.2,-999.0,90,-99.99,,,0.00,Acu-Link.com,2013-01-31 19:54:00,
2013-01-31 12:09:00,61.5,60.1,30.18,WNW,292,3.7,-999.0,95,-99.99,,,0.00,Acu-Link.com,2013-01-31 20:09:00,
2013-01-31 12:24:00,61.7,58.7,30.18,West,270,3.7,-999.0,90,-99.99,,,0.00,Acu-Link.com,2013-01-31 20:24:00,
2013-01-31 12:39:00,61.9,57.0,30.17,WNW,292,4.2,-999.0,84,-99.99,,,0.00,Acu-Link.com,2013-01-31 20:39:00,
2013-01-31 12:55:00,61.3,56.7,30.16,West,270,4.7,-999.0,85,-99.99,,,0.00,Acu-Link.com,2013-01-31 20:55:00,
2013-01-31 13:10:00,62.2,57.6,30.16,WNW,292,4.2,-999.0,85,-99.99,,,0.00,Acu-Link.com,2013-01-31 21:10:00,
2013-01-31 13:25:00,63.0,58.4,30.15,NW,315,4.7,-999.0,85,-99.99,,,0.00,Acu-Link.com,2013-01-31 21:25:00,
2013-01-31 13:40:00,62.2,58.0,30.15,WNW,292,4.2,-999.0,86,-99.99,,,0.00,Acu-Link.com,2013-01-31 21:40:00,
2013-01-31 13:55:00,61.9,56.3,30.14,West,270,3.2,-999.0,82,-99.99,,,0.00,Acu-Link.com,2013-01-31 21:55:00,
2013-01-31 14:11:00,62.4,56.5,30.14,West,270,4.7,-999.0,81,-99.99,,,0.00,Acu-Link.com,2013-01-31 22:11:00,
2013-01-31 14:26:00,63.7,56.7,30.14,WNW,292,3.7,-999.0,78,-99.99,,,0.00,Acu-Link.com,2013-01-31 22:26:00,
2013-01-31 14:41:00,62.6,55.6,30.14,West,270,4.7,-999.0,78,-99.99,,,0.00,Acu-Link.com,2013-01-31 22:41:00,
2013-01-31 14:56:00,61.3,55.1,30.14,West,270,3.2,-999.0,80,-99.99,,,0.00,Acu-Link.com,2013-01-31 22:56:00,
2013-01-31 15:12:00,61.3,55.1,30.14,WNW,292,2.7,-999.0,80,-99.99,,,0.00,Acu-Link.com,2013-01-31 23:12:00,
2013-01-31 15:27:00,61.2,56.0,30.14,NNW,337,2.7,-999.0,83,-99.99,,,0.00,Acu-Link.com,2013-01-31 23:27:00,
2013-01-31 15:42:00,61.3,55.8,30.14,NW,315,3.2,-999.0,82,-99.99,,,0.00,Acu-Link.com,2013-01-31 23:42:00,
2013-01-31 15:57:00,61.5,56.6,30.14,West,270,2.7,-999.0,84,-99.99,,,0.00,Acu-Link.com,2013-01-31 23:57:00,
2013-01-31 16:12:00,60.3,54.8,30.14,West,270,3.7,-999.0,82,-99.99,,,0.00,Acu-Link.com,2013-02-01 00:12:00,
2013-01-31 16:28:00,60.4,54.5,30.13,West,270,2.2,-999.0,81,-99.99,,,0.00,Acu-Link.com,2013-02-01 00:28:00,
2013-01-31 16:43:00,61.0,55.8,30.13,ESE,112,1.1,-999.0,83,-99.99,,,0.00,Acu-Link.com,2013-02-01 00:43:00,
2013-01-31 16:58:00,60.1,55.2,30.13,West,270,0.0,-999.0,84,-99.99,,,0.00,Acu-Link.com,2013-02-01 00:58:00,
2013-01-31 17:13:00,58.6,54.1,30.13,WNW,292,0.0,-999.0,85,-99.99,,,0.00,Acu-Link.com,2013-02-01 01:13:00,
2013-01-31 17:28:00,56.7,52.6,30.14,SW,225,0.0,-999.0,86,-99.99,,,0.00,Acu-Link.com,2013-02-01 01:28:00,
2013-01-31 17:44:00,54.9,51.1,30.14,North,0,0.0,-999.0,87,-99.99,,,0.00,Acu-Link.com,2013-02-01 01:44:00,
2013-01-31 17:59:00,54.0,50.8,30.13,East,90,0.0,-999.0,89,-99.99,,,0.00,Acu-Link.com,2013-02-01 01:59:00,
2013-01-31 18:14:00,51.3,49.1,30.13,North,0,2.2,-999.0,92,-99.99,,,0.00,Acu-Link.com,2013-02-01 02:14:00,
2013-01-31 18:29:00,52.2,49.4,30.13,West,270,0.0,-999.0,90,-99.99,,,0.00,Acu-Link.com,2013-02-01 02:29:00,
2013-01-31 18:44:00,52.0,48.9,30.13,SE,135,2.2,-999.0,89,-99.99,,,0.00,Acu-Link.com,2013-02-01 02:44:00,
2013-01-31 19:00:00,51.8,49.0,30.13,NE,45,1.7,-999.0,90,-99.99,,,0.00,Acu-Link.com,2013-02-01 03:00:00,
2013-01-31 19:15:00,51.8,49.3,30.13,ENE,67,3.2,-999.0,91,-99.99,,,0.00,Acu-Link.com,2013-02-01 03:15:00,
2013-01-31 19:30:00,52.0,49.5,30.13,NE,45,4.2,-999.0,91,-99.99,,,0.00,Acu-Link.com,2013-02-01 03:30:00,
2013-01-31 19:45:00,52.0,49.7,30.12,NNE,22,4.2,-999.0,92,-99.99,,,0.00,Acu-Link.com,2013-02-01 03:45:00,
2013-01-31 20:01:00,51.8,49.3,30.12,NE,45,3.7,-999.0,91,-99.99,,,0.00,Acu-Link.com,2013-02-01 04:01:00,
2013-01-31 20:16:00,51.8,50.1,30.12,SE,135,1.7,-999.0,94,-99.99,,,0.00,Acu-Link.com,2013-02-01 04:16:00,
2013-01-31 20:31:00,51.6,49.6,30.12,NE,45,1.7,-999.0,93,-99.99,,,0.00,Acu-Link.com,2013-02-01 04:31:00,
2013-01-31 20:46:00,51.4,49.4,30.12,SW,225,1.1,-999.0,93,-99.99,,,0.00,Acu-Link.com,2013-02-01 04:46:00,
2013-01-31 21:17:00,50.9,49.2,30.13,WSW,247,0.0,-999.0,94,-99.99,,,0.00,Acu-Link.com,2013-02-01 05:17:00,
2013-01-31 21:32:00,50.4,48.7,30.13,North,0,1.7,-999.0,94,-99.99,,,0.00,Acu-Link.com,2013-02-01 05:32:00,
2013-01-31 21:47:00,48.4,47.6,30.13,WSW,247,2.7,-999.0,97,-99.99,,,0.00,Acu-Link.com,2013-02-01 05:47:00,
2013-01-31 22:02:00,49.5,47.8,30.12,South,180,1.7,-999.0,94,-99.99,,,0.00,Acu-Link.com,2013-02-01 06:02:00,
2013-01-31 22:17:00,49.6,47.9,30.12,NE,45,1.1,-999.0,94,-99.99,,,0.00,Acu-Link.com,2013-02-01 06:17:00,
2013-01-31 22:33:00,49.8,47.6,30.12,NNE,22,2.2,-999.0,92,-99.99,,,0.00,Acu-Link.com,2013-02-01 06:33:00,
2013-01-31 22:48:00,49.5,47.3,30.12,NNW,337,1.7,-999.0,92,-99.99,,,0.00,Acu-Link.com,2013-02-01 06:48:00,
2013-01-31 23:03:00,49.5,47.3,30.12,West,270,1.7,-999.0,92,-99.99,,,0.00,Acu-Link.com,2013-02-01 07:03:00,
2013-01-31 23:18:00,49.5,47.3,30.12,North,0,1.7,-999.0,92,-99.99,,,0.00,Acu-Link.com,2013-02-01 07:18:00,
2013-01-31 23:33:00,49.3,46.5,30.12,East,90,0.0,-999.0,90,-99.99,,,0.00,Acu-Link.com,2013-02-01 07:33:00,
2013-01-31 23:49:00,49.3,45.9,30.12,ENE,67,2.7,-999.0,88,-99.99,,,0.00,Acu-Link.com,2013-02-01 07:49:00,